sensor_id;sensor_type;location;lat;lon;timestamp;P1;durP1;ratioP1;P2;durP2;ratioP2
9398;SDS011;4739;49.334;8.792;2022-07-23T00:01:20;9.10;;;8.40;;
9398;SDS011;4739;49.334;8.792;2022-07-23T00:03:45;10.90;;;8.43;;
9398;SDS011;4739;49.334;8.792;2022-07-23T00:06:11;8.80;;;8.10;;
9398;SDS011;4739;49.334;8.792;2022-07-23T00:08:37;9.43;;;8.40;;
9398;SDS011;4739;49.334;8.792;2022-07-23T00:11:02;9.23;;;8.30;;
9398;SDS011;4739;49.334;8.792;2022-07-23T00:13:28;9.03;;;8.17;;
9398;SDS011;4739;49.334;8.792;2022-07-23T00:15:54;8.40;;;7.70;;
9398;SDS011;4739;49.334;8.792;2022-07-23T00:18:20;8.70;;;7.70;;
9398;SDS011;4739;49.334;8.792;2022-07-23T00:20:45;9.87;;;8.50;;
9398;SDS011;4739;49.334;8.792;2022-07-23T00:23:11;10.13;;;8.17;;
9398;SDS011;4739;49.334;8.792;2022-07-23T00:25:37;9.87;;;8.80;;
9398;SDS011;4739;49.334;8.792;2022-07-23T00:28:03;9.60;;;8.70;;
9398;SDS011;4739;49.334;8.792;2022-07-23T00:30:29;8.90;;;8.20;;
9398;SDS011;4739;49.334;8.792;2022-07-23T00:32:57;8.77;;;8.07;;
9398;SDS011;4739;49.334;8.792;2022-07-23T00:35:29;8.80;;;8.00;;
9398;SDS011;4739;49.334;8.792;2022-07-23T00:37:55;8.90;;;8.20;;
9398;SDS011;4739;49.334;8.792;2022-07-23T00:40:21;9.37;;;8.57;;
9398;SDS011;4739;49.334;8.792;2022-07-23T00:42:47;10.30;;;8.63;;
9398;SDS011;4739;49.334;8.792;2022-07-23T00:45:14;9.13;;;8.23;;
9398;SDS011;4739;49.334;8.792;2022-07-23T00:47:40;10.80;;;8.37;;
9398;SDS011;4739;49.334;8.792;2022-07-23T00:50:06;9.60;;;8.73;;
9398;SDS011;4739;49.334;8.792;2022-07-23T00:52:33;9.73;;;8.60;;
9398;SDS011;4739;49.334;8.792;2022-07-23T00:54:59;9.10;;;8.30;;
9398;SDS011;4739;49.334;8.792;2022-07-23T00:57:25;9.27;;;8.47;;
9398;SDS011;4739;49.334;8.792;2022-07-23T00:59:51;9.83;;;9.03;;
9398;SDS011;4739;49.334;8.792;2022-07-23T01:02:16;9.07;;;8.20;;
9398;SDS011;4739;49.334;8.792;2022-07-23T01:04:42;9.57;;;8.70;;
9398;SDS011;4739;49.334;8.792;2022-07-23T01:07:07;10.03;;;9.20;;
9398;SDS011;4739;49.334;8.792;2022-07-23T01:09:33;8.80;;;7.97;;
9398;SDS011;4739;49.334;8.792;2022-07-23T01:11:59;9.60;;;8.80;;
9398;SDS011;4739;49.334;8.792;2022-07-23T01:14:25;9.67;;;8.77;;
9398;SDS011;4739;49.334;8.792;2022-07-23T01:16:51;10.10;;;8.80;;
9398;SDS011;4739;49.334;8.792;2022-07-23T01:19:17;9.60;;;8.70;;
9398;SDS011;4739;49.334;8.792;2022-07-23T01:21:45;9.30;;;8.40;;
9398;SDS011;4739;49.334;8.792;2022-07-23T01:24:12;9.20;;;8.30;;
9398;SDS011;4739;49.334;8.792;2022-07-23T01:26:41;9.53;;;8.67;;
9398;SDS011;4739;49.334;8.792;2022-07-23T01:29:08;9.53;;;8.63;;
9398;SDS011;4739;49.334;8.792;2022-07-23T01:31:33;9.83;;;8.87;;
9398;SDS011;4739;49.334;8.792;2022-07-23T01:33:59;9.30;;;8.50;;
9398;SDS011;4739;49.334;8.792;2022-07-23T01:36:25;9.30;;;8.40;;
9398;SDS011;4739;49.334;8.792;2022-07-23T01:38:51;9.47;;;8.60;;
9398;SDS011;4739;49.334;8.792;2022-07-23T01:41:17;9.20;;;8.33;;
9398;SDS011;4739;49.334;8.792;2022-07-23T01:43:43;9.87;;;8.97;;
9398;SDS011;4739;49.334;8.792;2022-07-23T01:46:09;9.17;;;8.37;;
9398;SDS011;4739;49.334;8.792;2022-07-23T01:48:35;9.77;;;8.87;;
9398;SDS011;4739;49.334;8.792;2022-07-23T01:51:01;9.70;;;8.63;;
9398;SDS011;4739;49.334;8.792;2022-07-23T01:53:27;9.10;;;8.30;;
9398;SDS011;4739;49.334;8.792;2022-07-23T01:55:52;9.20;;;8.40;;
9398;SDS011;4739;49.334;8.792;2022-07-23T01:58:18;9.77;;;8.70;;
9398;SDS011;4739;49.334;8.792;2022-07-23T02:00:43;10.00;;;9.00;;
9398;SDS011;4739;49.334;8.792;2022-07-23T02:03:09;9.43;;;8.47;;
9398;SDS011;4739;49.334;8.792;2022-07-23T02:05:35;9.97;;;8.87;;
9398;SDS011;4739;49.334;8.792;2022-07-23T02:08:01;10.63;;;8.70;;
9398;SDS011;4739;49.334;8.792;2022-07-23T02:10:27;10.50;;;9.50;;
9398;SDS011;4739;49.334;8.792;2022-07-23T02:12:53;10.03;;;9.13;;
9398;SDS011;4739;49.334;8.792;2022-07-23T02:15:18;9.03;;;8.07;;
9398;SDS011;4739;49.334;8.792;2022-07-23T02:17:44;9.63;;;8.80;;
9398;SDS011;4739;49.334;8.792;2022-07-23T02:20:10;9.20;;;8.37;;
9398;SDS011;4739;49.334;8.792;2022-07-23T02:22:36;10.10;;;9.13;;
9398;SDS011;4739;49.334;8.792;2022-07-23T02:25:05;9.33;;;8.53;;
9398;SDS011;4739;49.334;8.792;2022-07-23T02:27:32;9.60;;;8.70;;
9398;SDS011;4739;49.334;8.792;2022-07-23T02:29:58;9.70;;;8.90;;
9398;SDS011;4739;49.334;8.792;2022-07-23T02:32:24;10.13;;;9.23;;
9398;SDS011;4739;49.334;8.792;2022-07-23T02:34:50;10.43;;;9.53;;
9398;SDS011;4739;49.334;8.792;2022-07-23T02:37:16;10.83;;;9.47;;
9398;SDS011;4739;49.334;8.792;2022-07-23T02:39:41;9.80;;;8.87;;
9398;SDS011;4739;49.334;8.792;2022-07-23T02:42:07;9.90;;;8.90;;
9398;SDS011;4739;49.334;8.792;2022-07-23T02:44:33;10.33;;;9.53;;
9398;SDS011;4739;49.334;8.792;2022-07-23T02:46:59;10.17;;;9.17;;
9398;SDS011;4739;49.334;8.792;2022-07-23T02:49:24;10.57;;;9.47;;
9398;SDS011;4739;49.334;8.792;2022-07-23T02:51:50;9.60;;;8.80;;
9398;SDS011;4739;49.334;8.792;2022-07-23T02:54:16;10.87;;;9.80;;
9398;SDS011;4739;49.334;8.792;2022-07-23T02:56:41;10.50;;;9.73;;
9398;SDS011;4739;49.334;8.792;2022-07-23T02:59:07;10.33;;;9.43;;
9398;SDS011;4739;49.334;8.792;2022-07-23T03:01:33;10.57;;;9.67;;
9398;SDS011;4739;49.334;8.792;2022-07-23T03:03:59;10.60;;;9.50;;
9398;SDS011;4739;49.334;8.792;2022-07-23T03:06:24;10.93;;;9.93;;
9398;SDS011;4739;49.334;8.792;2022-07-23T03:08:50;9.67;;;8.77;;
9398;SDS011;4739;49.334;8.792;2022-07-23T03:11:15;8.33;;;7.57;;
9398;SDS011;4739;49.334;8.792;2022-07-23T03:13:41;8.63;;;7.10;;
9398;SDS011;4739;49.334;8.792;2022-07-23T03:16:07;7.80;;;7.10;;
9398;SDS011;4739;49.334;8.792;2022-07-23T03:18:33;8.30;;;7.50;;
9398;SDS011;4739;49.334;8.792;2022-07-23T03:20:59;10.27;;;9.30;;
9398;SDS011;4739;49.334;8.792;2022-07-23T03:23:30;9.67;;;8.77;;
9398;SDS011;4739;49.334;8.792;2022-07-23T03:25:56;10.97;;;9.97;;
9398;SDS011;4739;49.334;8.792;2022-07-23T03:28:21;11.20;;;10.20;;
9398;SDS011;4739;49.334;8.792;2022-07-23T03:30:47;11.17;;;10.03;;
9398;SDS011;4739;49.334;8.792;2022-07-23T03:33:16;10.67;;;9.57;;
9398;SDS011;4739;49.334;8.792;2022-07-23T03:35:43;11.03;;;10.03;;
9398;SDS011;4739;49.334;8.792;2022-07-23T03:38:09;11.40;;;10.27;;
9398;SDS011;4739;49.334;8.792;2022-07-23T03:40:35;10.90;;;10.00;;
9398;SDS011;4739;49.334;8.792;2022-07-23T03:43:01;10.30;;;9.40;;
9398;SDS011;4739;49.334;8.792;2022-07-23T03:45:27;10.50;;;9.57;;
9398;SDS011;4739;49.334;8.792;2022-07-23T03:47:53;10.20;;;9.20;;
9398;SDS011;4739;49.334;8.792;2022-07-23T03:50:19;10.53;;;9.50;;
9398;SDS011;4739;49.334;8.792;2022-07-23T03:52:45;10.00;;;9.07;;
9398;SDS011;4739;49.334;8.792;2022-07-23T03:55:10;9.37;;;8.47;;
9398;SDS011;4739;49.334;8.792;2022-07-23T03:57:36;9.73;;;8.90;;
9398;SDS011;4739;49.334;8.792;2022-07-23T04:00:02;9.83;;;8.93;;
9398;SDS011;4739;49.334;8.792;2022-07-23T04:02:29;9.87;;;8.97;;
9398;SDS011;4739;49.334;8.792;2022-07-23T04:04:55;9.47;;;8.60;;
9398;SDS011;4739;49.334;8.792;2022-07-23T04:07:20;9.47;;;8.40;;
9398;SDS011;4739;49.334;8.792;2022-07-23T04:09:46;10.43;;;8.87;;
9398;SDS011;4739;49.334;8.792;2022-07-23T04:12:12;9.60;;;8.70;;
9398;SDS011;4739;49.334;8.792;2022-07-23T04:14:38;10.33;;;9.23;;
9398;SDS011;4739;49.334;8.792;2022-07-23T04:17:03;9.57;;;8.67;;
9398;SDS011;4739;49.334;8.792;2022-07-23T04:19:29;9.90;;;9.10;;
9398;SDS011;4739;49.334;8.792;2022-07-23T04:21:55;8.57;;;7.77;;
9398;SDS011;4739;49.334;8.792;2022-07-23T04:24:21;8.93;;;8.13;;
9398;SDS011;4739;49.334;8.792;2022-07-23T04:26:47;9.17;;;8.27;;
9398;SDS011;4739;49.334;8.792;2022-07-23T04:29:12;9.40;;;7.90;;
9398;SDS011;4739;49.334;8.792;2022-07-23T04:31:38;8.27;;;7.57;;
9398;SDS011;4739;49.334;8.792;2022-07-23T04:34:03;9.87;;;8.87;;
9398;SDS011;4739;49.334;8.792;2022-07-23T04:36:29;10.10;;;9.23;;
9398;SDS011;4739;49.334;8.792;2022-07-23T04:38:55;8.97;;;8.17;;
9398;SDS011;4739;49.334;8.792;2022-07-23T04:41:21;8.60;;;7.70;;
9398;SDS011;4739;49.334;8.792;2022-07-23T04:43:46;8.10;;;7.30;;
9398;SDS011;4739;49.334;8.792;2022-07-23T04:46:12;9.37;;;8.57;;
9398;SDS011;4739;49.334;8.792;2022-07-23T04:48:38;8.07;;;7.37;;
9398;SDS011;4739;49.334;8.792;2022-07-23T04:51:05;9.27;;;8.33;;
9398;SDS011;4739;49.334;8.792;2022-07-23T04:53:31;8.27;;;7.57;;
9398;SDS011;4739;49.334;8.792;2022-07-23T04:55:57;8.03;;;7.23;;
9398;SDS011;4739;49.334;8.792;2022-07-23T04:58:22;9.43;;;7.80;;
9398;SDS011;4739;49.334;8.792;2022-07-23T05:00:48;8.17;;;7.47;;
9398;SDS011;4739;49.334;8.792;2022-07-23T05:03:14;7.80;;;7.10;;
9398;SDS011;4739;49.334;8.792;2022-07-23T05:05:40;8.10;;;7.30;;
9398;SDS011;4739;49.334;8.792;2022-07-23T05:08:05;8.67;;;7.77;;
9398;SDS011;4739;49.334;8.792;2022-07-23T05:10:31;7.77;;;7.07;;
9398;SDS011;4739;49.334;8.792;2022-07-23T05:12:56;10.23;;;7.73;;
9398;SDS011;4739;49.334;8.792;2022-07-23T05:15:22;8.03;;;7.33;;
9398;SDS011;4739;49.334;8.792;2022-07-23T05:17:48;8.70;;;7.50;;
9398;SDS011;4739;49.334;8.792;2022-07-23T05:20:14;8.63;;;7.83;;
9398;SDS011;4739;49.334;8.792;2022-07-23T05:22:39;8.20;;;7.50;;
9398;SDS011;4739;49.334;8.792;2022-07-23T05:25:05;7.67;;;7.03;;
9398;SDS011;4739;49.334;8.792;2022-07-23T05:27:31;10.13;;;7.93;;
9398;SDS011;4739;49.334;8.792;2022-07-23T05:29:57;9.20;;;8.30;;
9398;SDS011;4739;49.334;8.792;2022-07-23T05:32:23;8.77;;;7.60;;
9398;SDS011;4739;49.334;8.792;2022-07-23T05:34:48;8.20;;;7.40;;
9398;SDS011;4739;49.334;8.792;2022-07-23T05:37:14;8.37;;;7.57;;
9398;SDS011;4739;49.334;8.792;2022-07-23T05:39:40;8.33;;;7.43;;
9398;SDS011;4739;49.334;8.792;2022-07-23T05:42:06;8.77;;;7.97;;
9398;SDS011;4739;49.334;8.792;2022-07-23T05:44:31;8.47;;;7.67;;
9398;SDS011;4739;49.334;8.792;2022-07-23T05:46:57;9.53;;;7.60;;
9398;SDS011;4739;49.334;8.792;2022-07-23T05:49:22;8.47;;;7.67;;
9398;SDS011;4739;49.334;8.792;2022-07-23T05:51:48;9.00;;;8.10;;
9398;SDS011;4739;49.334;8.792;2022-07-23T05:54:13;8.47;;;7.67;;
9398;SDS011;4739;49.334;8.792;2022-07-23T05:56:39;8.80;;;7.90;;
9398;SDS011;4739;49.334;8.792;2022-07-23T05:59:05;9.33;;;8.43;;
9398;SDS011;4739;49.334;8.792;2022-07-23T06:01:31;10.23;;;8.87;;
9398;SDS011;4739;49.334;8.792;2022-07-23T06:03:56;10.63;;;9.57;;
9398;SDS011;4739;49.334;8.792;2022-07-23T06:06:22;10.20;;;9.20;;
9398;SDS011;4739;49.334;8.792;2022-07-23T06:08:47;9.60;;;8.63;;
9398;SDS011;4739;49.334;8.792;2022-07-23T06:11:13;10.07;;;9.17;;
9398;SDS011;4739;49.334;8.792;2022-07-23T06:13:39;10.27;;;9.27;;
9398;SDS011;4739;49.334;8.792;2022-07-23T06:16:04;9.53;;;8.67;;
9398;SDS011;4739;49.334;8.792;2022-07-23T06:18:30;9.63;;;8.63;;
9398;SDS011;4739;49.334;8.792;2022-07-23T06:20:56;10.87;;;9.77;;
9398;SDS011;4739;49.334;8.792;2022-07-23T06:23:21;9.60;;;8.70;;
9398;SDS011;4739;49.334;8.792;2022-07-23T06:25:47;10.37;;;9.37;;
9398;SDS011;4739;49.334;8.792;2022-07-23T06:28:12;9.90;;;8.90;;
9398;SDS011;4739;49.334;8.792;2022-07-23T06:30:38;9.63;;;8.70;;
9398;SDS011;4739;49.334;8.792;2022-07-23T06:33:03;9.13;;;8.23;;
9398;SDS011;4739;49.334;8.792;2022-07-23T06:35:29;10.13;;;9.17;;
9398;SDS011;4739;49.334;8.792;2022-07-23T06:37:55;10.77;;;9.53;;
9398;SDS011;4739;49.334;8.792;2022-07-23T06:40:21;9.03;;;8.20;;
9398;SDS011;4739;49.334;8.792;2022-07-23T06:42:46;12.57;;;9.30;;
9398;SDS011;4739;49.334;8.792;2022-07-23T06:45:12;11.13;;;10.13;;
9398;SDS011;4739;49.334;8.792;2022-07-23T06:47:37;11.30;;;9.57;;
9398;SDS011;4739;49.334;8.792;2022-07-23T06:50:04;12.13;;;10.50;;
9398;SDS011;4739;49.334;8.792;2022-07-23T06:52:30;14.63;;;10.80;;
9398;SDS011;4739;49.334;8.792;2022-07-23T06:54:56;11.17;;;10.07;;
9398;SDS011;4739;49.334;8.792;2022-07-23T06:57:21;10.30;;;9.30;;
9398;SDS011;4739;49.334;8.792;2022-07-23T06:59:48;11.90;;;10.80;;
9398;SDS011;4739;49.334;8.792;2022-07-23T07:02:13;10.43;;;9.53;;
9398;SDS011;4739;49.334;8.792;2022-07-23T07:04:39;10.87;;;9.80;;
9398;SDS011;4739;49.334;8.792;2022-07-23T07:07:04;11.27;;;10.10;;
9398;SDS011;4739;49.334;8.792;2022-07-23T07:09:30;10.80;;;9.80;;
9398;SDS011;4739;49.334;8.792;2022-07-23T07:11:55;10.50;;;9.60;;
9398;SDS011;4739;49.334;8.792;2022-07-23T07:14:21;11.73;;;10.27;;
9398;SDS011;4739;49.334;8.792;2022-07-23T07:16:47;11.20;;;10.10;;
9398;SDS011;4739;49.334;8.792;2022-07-23T07:19:13;11.77;;;10.63;;
9398;SDS011;4739;49.334;8.792;2022-07-23T07:21:38;12.03;;;10.93;;
9398;SDS011;4739;49.334;8.792;2022-07-23T07:24:04;12.43;;;11.13;;
9398;SDS011;4739;49.334;8.792;2022-07-23T07:26:31;12.60;;;11.40;;
9398;SDS011;4739;49.334;8.792;2022-07-23T07:28:57;12.87;;;10.83;;
9398;SDS011;4739;49.334;8.792;2022-07-23T07:31:23;11.47;;;10.37;;
9398;SDS011;4739;49.334;8.792;2022-07-23T07:33:48;11.47;;;10.40;;
9398;SDS011;4739;49.334;8.792;2022-07-23T07:36:14;11.40;;;10.30;;
9398;SDS011;4739;49.334;8.792;2022-07-23T07:38:40;12.37;;;10.80;;
9398;SDS011;4739;49.334;8.792;2022-07-23T07:41:05;12.37;;;11.17;;
9398;SDS011;4739;49.334;8.792;2022-07-23T07:43:32;11.70;;;10.50;;
9398;SDS011;4739;49.334;8.792;2022-07-23T07:45:58;11.53;;;10.33;;
9398;SDS011;4739;49.334;8.792;2022-07-23T07:48:24;11.53;;;10.43;;
9398;SDS011;4739;49.334;8.792;2022-07-23T07:50:49;11.17;;;10.17;;
9398;SDS011;4739;49.334;8.792;2022-07-23T07:53:15;11.83;;;10.73;;
9398;SDS011;4739;49.334;8.792;2022-07-23T07:55:40;10.80;;;9.70;;
9398;SDS011;4739;49.334;8.792;2022-07-23T07:58:06;11.63;;;10.53;;
9398;SDS011;4739;49.334;8.792;2022-07-23T08:00:31;11.33;;;10.23;;
9398;SDS011;4739;49.334;8.792;2022-07-23T08:02:58;10.87;;;9.83;;
9398;SDS011;4739;49.334;8.792;2022-07-23T08:05:27;10.63;;;9.63;;
9398;SDS011;4739;49.334;8.792;2022-07-23T08:07:54;11.60;;;10.50;;
9398;SDS011;4739;49.334;8.792;2022-07-23T08:10:21;10.03;;;9.03;;
9398;SDS011;4739;49.334;8.792;2022-07-23T08:12:48;11.23;;;10.13;;
9398;SDS011;4739;49.334;8.792;2022-07-23T08:15:15;10.73;;;9.70;;
9398;SDS011;4739;49.334;8.792;2022-07-23T08:17:43;11.03;;;10.00;;
9398;SDS011;4739;49.334;8.792;2022-07-23T08:20:10;10.23;;;9.33;;
9398;SDS011;4739;49.334;8.792;2022-07-23T08:22:50;10.17;;;9.17;;
9398;SDS011;4739;49.334;8.792;2022-07-23T08:25:26;10.00;;;9.00;;
9398;SDS011;4739;49.334;8.792;2022-07-23T08:27:56;9.43;;;8.53;;
9398;SDS011;4739;49.334;8.792;2022-07-23T08:30:23;9.60;;;8.70;;
9398;SDS011;4739;49.334;8.792;2022-07-23T08:32:49;10.17;;;9.27;;
9398;SDS011;4739;49.334;8.792;2022-07-23T08:35:23;9.63;;;8.73;;
9398;SDS011;4739;49.334;8.792;2022-07-23T08:37:59;9.82;;;8.93;;
9398;SDS011;4739;49.334;8.792;2022-07-23T08:40:27;10.50;;;9.50;;
9398;SDS011;4739;49.334;8.792;2022-07-23T08:42:55;10.20;;;9.20;;
9398;SDS011;4739;49.334;8.792;2022-07-23T08:45:22;9.63;;;8.82;;
9398;SDS011;4739;49.334;8.792;2022-07-23T08:47:49;10.83;;;9.73;;
9398;SDS011;4739;49.334;8.792;2022-07-23T08:50:16;9.13;;;8.33;;
9398;SDS011;4739;49.334;8.792;2022-07-23T08:52:42;9.82;;;8.23;;
9398;SDS011;4739;49.334;8.792;2022-07-23T08:55:08;10.15;;;8.43;;
9398;SDS011;4739;49.334;8.792;2022-07-23T08:57:34;10.25;;;8.77;;
9398;SDS011;4739;49.334;8.792;2022-07-23T09:00:00;9.60;;;8.63;;
9398;SDS011;4739;49.334;8.792;2022-07-23T09:02:25;10.03;;;8.83;;
9398;SDS011;4739;49.334;8.792;2022-07-23T09:04:51;9.17;;;8.37;;
9398;SDS011;4739;49.334;8.792;2022-07-23T09:07:16;13.67;;;9.97;;
9398;SDS011;4739;49.334;8.792;2022-07-23T09:09:42;10.83;;;9.80;;
9398;SDS011;4739;49.334;8.792;2022-07-23T09:12:09;9.33;;;8.47;;
9398;SDS011;4739;49.334;8.792;2022-07-23T09:14:36;9.80;;;8.90;;
9398;SDS011;4739;49.334;8.792;2022-07-23T09:17:12;10.60;;;9.40;;
9398;SDS011;4739;49.334;8.792;2022-07-23T09:19:39;9.60;;;8.67;;
9398;SDS011;4739;49.334;8.792;2022-07-23T09:22:26;9.43;;;8.47;;
9398;SDS011;4739;49.334;8.792;2022-07-23T09:25:03;9.53;;;8.63;;
9398;SDS011;4739;49.334;8.792;2022-07-23T09:30:32;9.23;;;8.33;;
9398;SDS011;4739;49.334;8.792;2022-07-23T09:33:03;10.00;;;9.10;;
9398;SDS011;4739;49.334;8.792;2022-07-23T09:35:50;10.02;;;9.07;;
9398;SDS011;4739;49.334;8.792;2022-07-23T09:38:17;11.77;;;9.97;;
9398;SDS011;4739;49.334;8.792;2022-07-23T09:40:44;11.02;;;10.02;;
9398;SDS011;4739;49.334;8.792;2022-07-23T09:43:11;9.90;;;8.90;;
9398;SDS011;4739;49.334;8.792;2022-07-23T09:45:38;10.80;;;9.80;;
9398;SDS011;4739;49.334;8.792;2022-07-23T09:48:10;10.45;;;9.35;;
9398;SDS011;4739;49.334;8.792;2022-07-23T09:50:40;10.47;;;9.53;;
9398;SDS011;4739;49.334;8.792;2022-07-23T09:53:07;11.63;;;10.43;;
9398;SDS011;4739;49.334;8.792;2022-07-23T09:55:33;10.98;;;9.88;;
9398;SDS011;4739;49.334;8.792;2022-07-23T09:58:05;10.38;;;9.38;;
9398;SDS011;4739;49.334;8.792;2022-07-23T10:00:37;10.20;;;9.30;;
9398;SDS011;4739;49.334;8.792;2022-07-23T10:03:04;10.53;;;9.53;;
9398;SDS011;4739;49.334;8.792;2022-07-23T10:05:31;10.75;;;9.40;;
9398;SDS011;4739;49.334;8.792;2022-07-23T10:07:57;9.60;;;8.53;;
9398;SDS011;4739;49.334;8.792;2022-07-23T10:10:26;10.80;;;9.80;;
9398;SDS011;4739;49.334;8.792;2022-07-23T10:12:54;9.38;;;8.57;;
9398;SDS011;4739;49.334;8.792;2022-07-23T10:15:43;9.88;;;8.98;;
9398;SDS011;4739;49.334;8.792;2022-07-23T10:18:10;9.05;;;8.18;;
9398;SDS011;4739;49.334;8.792;2022-07-23T10:20:37;10.48;;;8.52;;
9398;SDS011;4739;49.334;8.792;2022-07-23T10:31:27;9.15;;;8.32;;
9398;SDS011;4739;49.334;8.792;2022-07-23T10:36:51;11.10;;;10.02;;
9398;SDS011;4739;49.334;8.792;2022-07-23T10:39:30;9.32;;;8.43;;
9398;SDS011;4739;49.334;8.792;2022-07-23T10:42:08;9.35;;;8.55;;
9398;SDS011;4739;49.334;8.792;2022-07-23T10:44:39;8.27;;;7.47;;
9398;SDS011;4739;49.334;8.792;2022-07-23T10:47:09;8.70;;;7.90;;
9398;SDS011;4739;49.334;8.792;2022-07-23T10:49:35;8.75;;;8.00;;
9398;SDS011;4739;49.334;8.792;2022-07-23T10:54:42;8.38;;;7.63;;
9398;SDS011;4739;49.334;8.792;2022-07-23T10:57:09;8.20;;;7.43;;
9398;SDS011;4739;49.334;8.792;2022-07-23T11:02:36;7.35;;;6.68;;
9398;SDS011;4739;49.334;8.792;2022-07-23T11:05:04;8.20;;;7.32;;
9398;SDS011;4739;49.334;8.792;2022-07-23T11:07:31;8.65;;;7.85;;
9398;SDS011;4739;49.334;8.792;2022-07-23T11:09:57;8.55;;;7.85;;
9398;SDS011;4739;49.334;8.792;2022-07-23T11:17:26;7.95;;;7.22;;
9398;SDS011;4739;49.334;8.792;2022-07-23T11:22:46;8.55;;;7.85;;
9398;SDS011;4739;49.334;8.792;2022-07-23T11:25:28;9.20;;;8.30;;
9398;SDS011;4739;49.334;8.792;2022-07-23T11:27:56;8.60;;;7.80;;
9398;SDS011;4739;49.334;8.792;2022-07-23T11:30:38;8.20;;;7.50;;
9398;SDS011;4739;49.334;8.792;2022-07-23T11:35:31;8.38;;;7.57;;
9398;SDS011;4739;49.334;8.792;2022-07-23T11:38:04;8.43;;;7.70;;
9398;SDS011;4739;49.334;8.792;2022-07-23T11:40:30;8.57;;;7.82;;
9398;SDS011;4739;49.334;8.792;2022-07-23T11:42:58;8.23;;;7.47;;
9398;SDS011;4739;49.334;8.792;2022-07-23T11:45:25;9.10;;;8.20;;
9398;SDS011;4739;49.334;8.792;2022-07-23T11:47:52;8.38;;;7.25;;
9398;SDS011;4739;49.334;8.792;2022-07-23T11:50:18;8.10;;;7.30;;
9398;SDS011;4739;49.334;8.792;2022-07-23T11:52:44;8.52;;;7.72;;
9398;SDS011;4739;49.334;8.792;2022-07-23T11:55:10;8.85;;;7.95;;
9398;SDS011;4739;49.334;8.792;2022-07-23T11:57:37;9.75;;;8.18;;
9398;SDS011;4739;49.334;8.792;2022-07-23T12:02:42;7.68;;;6.85;;
9398;SDS011;4739;49.334;8.792;2022-07-23T12:05:16;8.20;;;7.50;;
9398;SDS011;4739;49.334;8.792;2022-07-23T12:07:44;8.00;;;7.20;;
9398;SDS011;4739;49.334;8.792;2022-07-23T12:12:54;8.10;;;7.35;;
9398;SDS011;4739;49.334;8.792;2022-07-23T12:15:26;7.65;;;6.95;;
9398;SDS011;4739;49.334;8.792;2022-07-23T12:17:57;6.95;;;6.25;;
9398;SDS011;4739;49.334;8.792;2022-07-23T12:20:26;7.13;;;6.50;;
9398;SDS011;4739;49.334;8.792;2022-07-23T12:22:58;6.68;;;6.07;;
9398;SDS011;4739;49.334;8.792;2022-07-23T12:25:27;7.22;;;6.53;;
9398;SDS011;4739;49.334;8.792;2022-07-23T12:27:59;6.15;;;5.65;;
9398;SDS011;4739;49.334;8.792;2022-07-23T12:33:12;8.20;;;6.63;;
9398;SDS011;4739;49.334;8.792;2022-07-23T12:35:42;7.07;;;6.50;;
9398;SDS011;4739;49.334;8.792;2022-07-23T12:38:14;7.25;;;6.55;;
9398;SDS011;4739;49.334;8.792;2022-07-23T12:40:42;7.15;;;6.53;;
9398;SDS011;4739;49.334;8.792;2022-07-23T12:43:10;6.88;;;6.28;;
9398;SDS011;4739;49.334;8.792;2022-07-23T12:46:06;7.30;;;6.68;;
9398;SDS011;4739;49.334;8.792;2022-07-23T12:51:17;7.93;;;7.10;;
9398;SDS011;4739;49.334;8.792;2022-07-23T12:53:45;8.50;;;7.65;;
9398;SDS011;4739;49.334;8.792;2022-07-23T12:56:14;8.48;;;7.78;;
9398;SDS011;4739;49.334;8.792;2022-07-23T13:01:30;8.38;;;7.57;;
9398;SDS011;4739;49.334;8.792;2022-07-23T13:06:26;8.25;;;7.50;;
9398;SDS011;4739;49.334;8.792;2022-07-23T13:08:57;7.93;;;7.22;;
9398;SDS011;4739;49.334;8.792;2022-07-23T13:11:23;8.80;;;8.05;;
9398;SDS011;4739;49.334;8.792;2022-07-23T13:13:48;8.57;;;7.88;;
9398;SDS011;4739;49.334;8.792;2022-07-23T13:16:14;8.75;;;7.82;;
9398;SDS011;4739;49.334;8.792;2022-07-23T13:18:40;8.73;;;7.97;;
9398;SDS011;4739;49.334;8.792;2022-07-23T13:21:06;9.55;;;8.45;;
9398;SDS011;4739;49.334;8.792;2022-07-23T13:23:32;8.50;;;7.80;;
9398;SDS011;4739;49.334;8.792;2022-07-23T13:25:57;9.07;;;8.27;;
9398;SDS011;4739;49.334;8.792;2022-07-23T13:28:23;9.00;;;8.27;;
9398;SDS011;4739;49.334;8.792;2022-07-23T13:30:49;9.68;;;8.77;;
9398;SDS011;4739;49.334;8.792;2022-07-23T13:33:16;9.32;;;8.50;;
9398;SDS011;4739;49.334;8.792;2022-07-23T13:35:44;10.02;;;9.23;;
9398;SDS011;4739;49.334;8.792;2022-07-23T13:38:09;9.30;;;8.23;;
9398;SDS011;4739;49.334;8.792;2022-07-23T13:40:36;9.40;;;8.50;;
9398;SDS011;4739;49.334;8.792;2022-07-23T13:43:05;9.18;;;8.32;;
9398;SDS011;4739;49.334;8.792;2022-07-23T13:45:32;8.65;;;7.95;;
9398;SDS011;4739;49.334;8.792;2022-07-23T13:47:58;8.13;;;7.38;;
9398;SDS011;4739;49.334;8.792;2022-07-23T13:50:24;8.27;;;7.47;;
9398;SDS011;4739;49.334;8.792;2022-07-23T13:52:50;8.95;;;7.55;;
9398;SDS011;4739;49.334;8.792;2022-07-23T13:55:16;8.48;;;7.57;;
9398;SDS011;4739;49.334;8.792;2022-07-23T13:57:41;7.88;;;7.18;;
9398;SDS011;4739;49.334;8.792;2022-07-23T14:00:07;8.60;;;7.80;;
9398;SDS011;4739;49.334;8.792;2022-07-23T14:02:35;8.05;;;7.45;;
9398;SDS011;4739;49.334;8.792;2022-07-23T14:05:03;7.70;;;7.00;;
9398;SDS011;4739;49.334;8.792;2022-07-23T14:07:33;8.00;;;7.30;;
9398;SDS011;4739;49.334;8.792;2022-07-23T14:10:00;8.00;;;7.30;;
9398;SDS011;4739;49.334;8.792;2022-07-23T14:12:26;7.65;;;6.90;;
9398;SDS011;4739;49.334;8.792;2022-07-23T14:14:51;7.90;;;7.20;;
9398;SDS011;4739;49.334;8.792;2022-07-23T14:17:17;8.60;;;7.50;;
9398;SDS011;4739;49.334;8.792;2022-07-23T14:19:43;8.23;;;7.50;;
9398;SDS011;4739;49.334;8.792;2022-07-23T14:22:09;8.38;;;7.70;;
9398;SDS011;4739;49.334;8.792;2022-07-23T14:24:34;8.23;;;7.53;;
9398;SDS011;4739;49.334;8.792;2022-07-23T14:27:00;7.47;;;6.88;;
9398;SDS011;4739;49.334;8.792;2022-07-23T14:29:27;7.53;;;6.65;;
9398;SDS011;4739;49.334;8.792;2022-07-23T14:31:53;7.57;;;6.97;;
9398;SDS011;4739;49.334;8.792;2022-07-23T14:34:19;8.02;;;7.32;;
9398;SDS011;4739;49.334;8.792;2022-07-23T14:36:44;7.28;;;6.68;;
9398;SDS011;4739;49.334;8.792;2022-07-23T14:39:10;7.97;;;7.18;;
9398;SDS011;4739;49.334;8.792;2022-07-23T14:41:37;8.10;;;7.15;;
9398;SDS011;4739;49.334;8.792;2022-07-23T14:44:03;8.20;;;7.50;;
9398;SDS011;4739;49.334;8.792;2022-07-23T14:46:29;7.47;;;6.85;;
9398;SDS011;4739;49.334;8.792;2022-07-23T14:48:55;7.80;;;7.10;;
9398;SDS011;4739;49.334;8.792;2022-07-23T14:51:20;7.55;;;6.72;;
9398;SDS011;4739;49.334;8.792;2022-07-23T14:53:46;7.50;;;6.70;;
9398;SDS011;4739;49.334;8.792;2022-07-23T14:56:12;7.82;;;7.20;;
9398;SDS011;4739;49.334;8.792;2022-07-23T14:58:38;7.63;;;6.97;;
9398;SDS011;4739;49.334;8.792;2022-07-23T15:01:05;7.45;;;6.85;;
9398;SDS011;4739;49.334;8.792;2022-07-23T15:03:31;7.00;;;6.47;;
9398;SDS011;4739;49.334;8.792;2022-07-23T15:05:58;7.70;;;7.00;;
9398;SDS011;4739;49.334;8.792;2022-07-23T15:08:23;7.72;;;7.07;;
9398;SDS011;4739;49.334;8.792;2022-07-23T15:10:49;8.00;;;7.32;;
9398;SDS011;4739;49.334;8.792;2022-07-23T15:13:15;8.25;;;7.43;;
9398;SDS011;4739;49.334;8.792;2022-07-23T15:15:41;8.25;;;7.45;;
9398;SDS011;4739;49.334;8.792;2022-07-23T15:18:07;7.80;;;7.05;;
9398;SDS011;4739;49.334;8.792;2022-07-23T15:20:33;8.10;;;7.40;;
9398;SDS011;4739;49.334;8.792;2022-07-23T15:22:59;7.63;;;7.03;;
9398;SDS011;4739;49.334;8.792;2022-07-23T15:25:25;8.40;;;7.53;;
9398;SDS011;4739;49.334;8.792;2022-07-23T15:27:51;7.57;;;6.85;;
9398;SDS011;4739;49.334;8.792;2022-07-23T15:30:17;7.35;;;6.63;;
9398;SDS011;4739;49.334;8.792;2022-07-23T15:32:43;7.43;;;6.80;;
9398;SDS011;4739;49.334;8.792;2022-07-23T15:35:09;7.32;;;6.63;;
9398;SDS011;4739;49.334;8.792;2022-07-23T15:37:35;6.68;;;6.07;;
9398;SDS011;4739;49.334;8.792;2022-07-23T15:40:01;7.10;;;6.40;;
9398;SDS011;4739;49.334;8.792;2022-07-23T15:42:30;8.45;;;6.53;;
9398;SDS011;4739;49.334;8.792;2022-07-23T15:44:56;7.10;;;6.50;;
9398;SDS011;4739;49.334;8.792;2022-07-23T15:47:22;7.20;;;6.60;;
9398;SDS011;4739;49.334;8.792;2022-07-23T15:49:47;7.57;;;6.80;;
9398;SDS011;4739;49.334;8.792;2022-07-23T15:52:13;8.05;;;7.35;;
9398;SDS011;4739;49.334;8.792;2022-07-23T15:54:39;7.75;;;7.05;;